createdAt,value
2022-08-03T00:01:29.342Z,101639.66
2022-08-03T00:03:56.102Z,101636.53
2022-08-03T00:06:22.859Z,101637.19
2022-08-03T00:08:49.744Z,101635.16
2022-08-03T00:11:16.495Z,101638.81
2022-08-03T00:13:43.249Z,101631.16
2022-08-03T00:16:11.089Z,101626.53
2022-08-03T00:18:37.973Z,101624.06
2022-08-03T00:21:05.813Z,101632.38
2022-08-03T00:23:51.312Z,101630.69
2022-08-03T00:26:22.858Z,101629.47
2022-08-03T00:28:50.459Z,101621.84
2022-08-03T00:31:27.767Z,101618.75
2022-08-03T00:34:04.509Z,101628.91
2022-08-03T00:36:31.240Z,101630.78
2022-08-03T00:38:58.243Z,101625.34
2022-08-03T00:41:25.117Z,101627.22
2022-08-03T00:43:51.869Z,101621.16
2022-08-03T00:46:21.583Z,101632.41
2022-08-03T00:48:49.953Z,101625.56
2022-08-03T00:51:16.707Z,101629.28
2022-08-03T00:53:43.707Z,101625.44
2022-08-03T00:56:14.662Z,101620.00
2022-08-03T00:58:41.929Z,101626.72
2022-08-03T01:01:08.821Z,101620.19
2022-08-03T01:03:35.665Z,101617.88
2022-08-03T01:06:18.672Z,101621.47
2022-08-03T01:09:11.663Z,101608.91
2022-08-03T01:12:14.638Z,101615.94
2022-08-03T01:15:03.533Z,101624.50
2022-08-03T01:17:51.388Z,101612.25
2022-08-03T01:20:21.017Z,101608.38
2022-08-03T01:23:12.493Z,101610.56
2022-08-03T01:26:00.610Z,101613.84
2022-08-03T01:29:24.362Z,101609.53
2022-08-03T01:32:53.556Z,101610.13
2022-08-03T01:34:55.815Z,101606.59
2022-08-03T01:37:27.998Z,101610.66
2022-08-03T01:39:58.202Z,101613.31
2022-08-03T01:42:26.156Z,101609.75
2022-08-03T01:44:54.114Z,101606.66
2022-08-03T01:47:23.039Z,101606.97
2022-08-03T01:49:51.476Z,101604.19
2022-08-03T01:52:20.457Z,101602.19
2022-08-03T01:54:51.229Z,101591.59
2022-08-03T01:57:19.194Z,101595.00
2022-08-03T01:59:48.835Z,101589.56
2022-08-03T02:02:32.813Z,101584.28
2022-08-03T02:05:03.000Z,101597.53
2022-08-03T02:07:32.151Z,101591.78
2022-08-03T02:10:01.298Z,101594.75
2022-08-03T02:12:30.097Z,101593.50
2022-08-03T02:14:57.711Z,101594.63
2022-08-03T02:17:39.088Z,101595.25
2022-08-03T02:20:08.868Z,101600.09
2022-08-03T02:22:38.490Z,101595.75
2022-08-03T02:25:05.488Z,101597.19
2022-08-03T02:27:38.408Z,101597.19
2022-08-03T02:30:10.893Z,101590.97
2022-08-03T02:32:41.024Z,101586.31
2022-08-03T02:35:13.167Z,101583.97
2022-08-03T02:37:45.167Z,101582.44
2022-08-03T02:40:19.074Z,101580.88
2022-08-03T02:42:47.255Z,101581.00
2022-08-03T02:45:17.236Z,101574.97
2022-08-03T02:47:53.387Z,101574.19
2022-08-03T02:50:23.077Z,101565.78
2022-08-03T02:52:51.438Z,101558.31
2022-08-03T02:55:20.602Z,101560.50
2022-08-03T02:57:48.072Z,101574.81
2022-08-03T03:00:27.126Z,101572.03
2022-08-03T03:02:58.745Z,101567.19
2022-08-03T03:05:54.338Z,101566.41
2022-08-03T03:08:17.707Z,101562.56
2022-08-03T03:10:46.763Z,101563.97
2022-08-03T03:13:16.026Z,101567.69
2022-08-03T03:15:43.857Z,101571.44
2022-08-03T03:18:11.362Z,101564.13
2022-08-03T03:20:40.982Z,101556.06
2022-08-03T03:23:09.783Z,101566.50
2022-08-03T03:25:37.490Z,101564.94
2022-08-03T03:28:06.374Z,101559.53
2022-08-03T03:30:34.498Z,101559.53
2022-08-03T03:33:01.259Z,101560.47
2022-08-03T03:35:28.244Z,101565.78
2022-08-03T03:37:55.033Z,101558.47
2022-08-03T03:40:22.727Z,101556.91
2022-08-03T03:42:50.563Z,101556.91
2022-08-03T03:45:17.924Z,101563.75
2022-08-03T03:47:44.680Z,101563.75
2022-08-03T03:50:12.639Z,101564.41
2022-08-03T03:52:39.395Z,101558.66
2022-08-03T03:55:06.775Z,101559.72
2022-08-03T03:57:34.592Z,101561.88
2022-08-03T04:00:01.277Z,101564.53
2022-08-03T04:02:27.866Z,101567.16
2022-08-03T04:05:13.104Z,101567.81
2022-08-03T04:08:18.385Z,101569.66
2022-08-03T04:10:59.186Z,101560.97
2022-08-03T04:13:32.181Z,101565.16
2022-08-03T04:16:00.137Z,101570.00
2022-08-03T04:18:30.759Z,101569.19
2022-08-03T04:21:01.821Z,101569.19
2022-08-03T04:23:30.979Z,101568.91
2022-08-03T04:25:59.544Z,101570.47
2022-08-03T04:28:30.724Z,101572.00
2022-08-03T04:31:01.103Z,101570.56
2022-08-03T04:33:31.335Z,101576.69
2022-08-03T04:36:03.378Z,101569.53
2022-08-03T04:38:33.364Z,101569.53
2022-08-03T04:41:01.708Z,101573.41
2022-08-03T04:43:30.962Z,101570.44
2022-08-03T04:45:59.402Z,101571.69
2022-08-03T04:48:26.641Z,101576.34
2022-08-03T04:50:54.490Z,101580.06
2022-08-03T04:53:21.478Z,101584.75
2022-08-03T04:55:48.474Z,101579.91
2022-08-03T04:58:15.116Z,101586.56
2022-08-03T05:00:42.472Z,101583.28
2022-08-03T05:03:23.962Z,101586.84
2022-08-03T05:06:01.989Z,101595.25
2022-08-03T05:08:41.203Z,101597.09
2022-08-03T05:11:15.355Z,101591.66
2022-08-03T05:13:42.346Z,101587.59
2022-08-03T05:16:09.104Z,101591.78
2022-08-03T05:18:36.121Z,101594.91
2022-08-03T05:21:03.103Z,101600.75
2022-08-03T05:23:29.748Z,101609.50
2022-08-03T05:25:56.978Z,101600.91
2022-08-03T05:28:23.742Z,101601.66
2022-08-03T05:30:50.737Z,101597.94
2022-08-03T05:33:17.492Z,101603.06
2022-08-03T05:35:56.016Z,101607.41
2022-08-03T05:38:34.896Z,101613.16
2022-08-03T05:41:21.590Z,101609.22
2022-08-03T05:43:50.499Z,101609.94
2022-08-03T05:46:17.249Z,101607.63
2022-08-03T05:48:44.003Z,101612.59
2022-08-03T05:51:13.613Z,101612.66
2022-08-03T05:53:41.720Z,101608.31
2022-08-03T05:56:14.018Z,101616.06
2022-08-03T05:58:46.538Z,101612.09
2022-08-03T06:01:13.576Z,101605.63
2022-08-03T06:03:40.639Z,101613.50
2022-08-03T06:06:07.402Z,101612.31
2022-08-03T06:08:34.661Z,101608.19
2022-08-03T06:11:01.391Z,101611.88
2022-08-03T06:13:28.028Z,101615.13
2022-08-03T06:15:54.924Z,101616.03
2022-08-03T06:18:21.667Z,101612.50
2022-08-03T06:20:49.395Z,101613.03
2022-08-03T06:23:18.051Z,101611.59
2022-08-03T06:25:45.559Z,101614.69
2022-08-03T06:31:01.132Z,101616.38
2022-08-03T06:33:48.498Z,101627.84
2022-08-03T06:36:15.304Z,101614.94
2022-08-03T06:38:42.059Z,101617.31
2022-08-03T06:41:08.826Z,101618.78
2022-08-03T06:43:37.807Z,101607.66
2022-08-03T06:46:08.089Z,101605.50
2022-08-03T06:48:34.743Z,101613.66
2022-08-03T06:51:01.368Z,101616.91
2022-08-03T06:53:28.128Z,101613.63
2022-08-03T06:55:55.414Z,101612.78
2022-08-03T06:58:22.843Z,101613.03
2022-08-03T07:00:49.840Z,101616.50
2022-08-03T07:03:17.202Z,101627.38
2022-08-03T07:05:46.619Z,101622.81
2022-08-03T07:08:14.344Z,101619.56
2022-08-03T07:10:41.201Z,101629.09
2022-08-03T07:13:08.195Z,101621.03
2022-08-03T07:15:38.356Z,101636.66
2022-08-03T07:18:24.661Z,101635.69
2022-08-03T07:20:56.944Z,101624.47
2022-08-03T07:23:23.784Z,101638.75
2022-08-03T07:25:51.032Z,101646.72
2022-08-03T07:28:18.168Z,101639.13
2022-08-03T07:30:44.919Z,101642.28
2022-08-03T07:33:11.786Z,101646.56
2022-08-03T07:35:38.786Z,101652.50
2022-08-03T07:38:05.657Z,101652.16
2022-08-03T07:40:32.455Z,101653.34
2022-08-03T07:43:00.520Z,101647.53
2022-08-03T07:45:27.256Z,101654.06
2022-08-03T07:47:54.577Z,101642.75
2022-08-03T07:50:22.253Z,101648.75
2022-08-03T07:52:50.632Z,101648.19
2022-08-03T07:55:21.855Z,101643.78
2022-08-03T07:58:10.026Z,101653.28
2022-08-03T08:00:36.845Z,101643.28
2022-08-03T08:03:04.209Z,101640.09
2022-08-03T08:05:31.195Z,101645.09
2022-08-03T08:07:57.958Z,101641.75
2022-08-03T08:10:24.725Z,101638.09
2022-08-03T08:12:51.851Z,101647.81
2022-08-03T08:15:18.953Z,101645.28
2022-08-03T08:17:47.161Z,101646.91
2022-08-03T08:20:23.818Z,101647.66
2022-08-03T08:23:01.275Z,101648.81
2022-08-03T08:25:29.385Z,101642.50
2022-08-03T08:28:22.412Z,101640.66
2022-08-03T08:30:42.942Z,101642.56
2022-08-03T08:33:15.702Z,101646.47
2022-08-03T08:35:51.357Z,101648.88
2022-08-03T08:38:18.224Z,101655.28
2022-08-03T08:40:45.216Z,101644.22
2022-08-03T08:43:11.857Z,101657.75
2022-08-03T08:45:38.853Z,101657.81
2022-08-03T08:48:08.470Z,101653.63
2022-08-03T08:50:37.781Z,101652.19
2022-08-03T08:53:09.636Z,101653.75
2022-08-03T08:55:58.476Z,101659.50
2022-08-03T08:58:26.481Z,101657.59
2022-08-03T09:00:53.227Z,101657.97
2022-08-03T09:03:29.127Z,101655.28
2022-08-03T09:06:01.078Z,101659.53
2022-08-03T09:08:29.965Z,101659.13
2022-08-03T09:10:56.838Z,101662.16
2022-08-03T09:13:23.597Z,101664.03
2022-08-03T09:16:13.161Z,101657.91
2022-08-03T09:18:40.276Z,101659.03
2022-08-03T09:21:33.265Z,101658.19
2022-08-03T09:24:04.712Z,101654.75
2022-08-03T09:26:34.751Z,101649.81
2022-08-03T09:29:09.642Z,101655.19
2022-08-03T09:31:45.926Z,101659.00
2022-08-03T09:34:17.474Z,101658.25
2022-08-03T09:36:46.716Z,101657.44
2022-08-03T09:39:19.498Z,101658.88
2022-08-03T09:42:18.346Z,101654.97
2022-08-03T09:44:47.720Z,101654.19
2022-08-03T09:47:17.017Z,101661.78
2022-08-03T09:50:02.230Z,101660.19
2022-08-03T09:52:50.127Z,101657.38
2022-08-03T09:56:01.799Z,101661.53
2022-08-03T09:58:10.451Z,101656.53
2022-08-03T10:00:57.744Z,101657.63
2022-08-03T10:03:26.809Z,101656.75
2022-08-03T10:05:58.983Z,101655.09
2022-08-03T10:08:26.557Z,101660.84
2022-08-03T10:10:58.693Z,101667.03
2022-08-03T10:13:25.603Z,101661.59
2022-08-03T10:16:23.005Z,101656.97
2022-08-03T10:18:38.940Z,101667.25
2022-08-03T10:21:10.592Z,101661.75
2022-08-03T10:23:38.910Z,101661.25
2022-08-03T10:26:07.976Z,101658.88
2022-08-03T10:28:47.088Z,101668.34
2022-08-03T10:31:14.550Z,101666.38
2022-08-03T10:33:52.899Z,101665.97
2022-08-03T10:36:24.273Z,101660.03
2022-08-03T10:38:53.398Z,101662.78
2022-08-03T10:41:22.951Z,101655.31
2022-08-03T10:44:10.694Z,101650.22
2022-08-03T10:46:44.735Z,101642.53
2022-08-03T10:49:16.743Z,101638.47
2022-08-03T10:51:59.890Z,101637.47
2022-08-03T10:55:00.748Z,101638.81
2022-08-03T10:57:58.521Z,101634.66
2022-08-03T11:00:27.660Z,101628.72
2022-08-03T11:03:12.722Z,101635.06
2022-08-03T11:05:42.748Z,101639.03
2022-08-03T11:08:29.403Z,101633.56
2022-08-03T11:10:58.803Z,101634.56
2022-08-03T11:13:30.962Z,101629.50
2022-08-03T11:16:02.988Z,101628.34
2022-08-03T11:18:31.815Z,101627.22
2022-08-03T11:21:00.507Z,101632.44
2022-08-03T11:24:04.386Z,101623.25
2022-08-03T11:26:33.085Z,101626.78
2022-08-03T11:29:27.498Z,101634.69
2022-08-03T11:31:54.224Z,101625.75
2022-08-03T11:34:20.987Z,101629.00
2022-08-03T11:37:28.831Z,101628.03
2022-08-03T11:39:59.741Z,101630.94
2022-08-03T11:42:27.230Z,101631.63
2022-08-03T11:44:55.914Z,101629.16
2022-08-03T11:47:24.479Z,101622.06
2022-08-03T11:49:53.985Z,101633.41
2022-08-03T11:52:26.680Z,101625.41
2022-08-03T11:54:56.535Z,101624.31
2022-08-03T11:59:00.955Z,101618.72
2022-08-03T12:00:22.648Z,101624.88
2022-08-03T12:03:09.308Z,101626.19
2022-08-03T12:05:52.569Z,101626.38
2022-08-03T12:08:33.474Z,101630.81
2022-08-03T12:11:04.549Z,101631.91
2022-08-03T12:14:32.973Z,101630.56
2022-08-03T12:16:35.605Z,101628.19
2022-08-03T12:19:05.486Z,101621.00
2022-08-03T12:21:32.354Z,101620.31
2022-08-03T12:24:04.640Z,101624.38
2022-08-03T12:26:58.261Z,101622.44
2022-08-03T12:29:26.882Z,101613.28
2022-08-03T12:31:53.712Z,101620.47
2022-08-03T12:34:20.493Z,101615.66
2022-08-03T12:36:59.348Z,101617.06
2022-08-03T12:39:30.849Z,101618.06
2022-08-03T12:41:57.784Z,101618.69
2022-08-03T12:44:32.100Z,101612.16
2022-08-03T12:46:59.699Z,101620.53
2022-08-03T12:49:26.763Z,101615.56
2022-08-03T12:51:53.575Z,101618.09
2022-08-03T12:54:32.574Z,101618.41
2022-08-03T12:57:02.241Z,101623.19
2022-08-03T12:59:34.913Z,101622.59
2022-08-03T13:02:04.685Z,101618.53
2022-08-03T13:04:36.774Z,101618.88
2022-08-03T13:07:05.209Z,101611.41
2022-08-03T13:09:47.934Z,101612.72
2022-08-03T13:12:16.246Z,101613.41
2022-08-03T13:14:44.819Z,101609.09
2022-08-03T13:17:11.802Z,101605.31
2022-08-03T13:19:39.657Z,101608.31
2022-08-03T13:22:19.718Z,101614.03
2022-08-03T13:24:49.115Z,101613.81
2022-08-03T13:28:02.255Z,101610.97
2022-08-03T13:30:04.147Z,101602.97
2022-08-03T13:32:31.001Z,101610.91
2022-08-03T13:34:57.751Z,101611.50
2022-08-03T13:37:25.060Z,101620.44
2022-08-03T13:39:59.147Z,101607.19
2022-08-03T13:42:34.943Z,101607.06
2022-08-03T13:45:02.543Z,101607.69
2022-08-03T13:47:29.420Z,101601.41
2022-08-03T13:50:01.452Z,101615.19
2022-08-03T13:52:36.573Z,101607.63
2022-08-03T13:55:06.047Z,101610.97
2022-08-03T13:58:04.605Z,101611.56
2022-08-03T14:00:26.437Z,101611.91
2022-08-03T14:03:02.820Z,101616.22
2022-08-03T14:05:33.259Z,101603.19
2022-08-03T14:08:05.805Z,101611.00
2022-08-03T14:10:38.767Z,101599.84
2022-08-03T14:13:06.141Z,101594.94
2022-08-03T14:15:38.003Z,101604.66
2022-08-03T14:18:06.363Z,101601.69
2022-08-03T14:20:38.683Z,101592.47
2022-08-03T14:23:15.719Z,101590.00
2022-08-03T14:25:43.195Z,101586.09
2022-08-03T14:28:17.035Z,101589.91
2022-08-03T14:30:43.683Z,101587.56
2022-08-03T14:33:10.433Z,101579.16
2022-08-03T14:35:37.197Z,101579.91
2022-08-03T14:38:03.950Z,101577.47
2022-08-03T14:40:30.587Z,101578.28
2022-08-03T14:42:57.350Z,101575.25
2022-08-03T14:45:24.226Z,101573.91
2022-08-03T14:50:29.015Z,101574.94
2022-08-03T14:50:44.143Z,101569.00
2022-08-03T14:53:12.584Z,101567.66
2022-08-03T14:55:49.413Z,101559.69
2022-08-03T14:58:21.166Z,101562.50
2022-08-03T15:00:49.916Z,101559.38
2022-08-03T15:03:17.627Z,101561.22
2022-08-03T15:05:44.789Z,101567.63
2022-08-03T15:08:11.636Z,101562.50
2022-08-03T15:10:44.050Z,101559.16
2022-08-03T15:13:12.719Z,101564.22
2022-08-03T15:15:39.688Z,101563.53
2022-08-03T15:18:06.450Z,101564.53
2022-08-03T15:20:43.837Z,101559.72
2022-08-03T15:23:12.716Z,101563.97
2022-08-03T15:26:28.055Z,101562.25
2022-08-03T15:28:26.237Z,101554.28
2022-08-03T15:30:53.238Z,101552.75
2022-08-03T15:33:20.237Z,101553.09
2022-08-03T15:35:47.779Z,101553.56
2022-08-03T15:38:14.594Z,101548.44
2022-08-03T15:40:41.715Z,101549.47
2022-08-03T15:43:08.471Z,101540.47
2022-08-03T15:45:36.255Z,101546.22
2022-08-03T15:48:06.914Z,101544.91
2022-08-03T15:50:33.672Z,101540.47
2022-08-03T15:53:00.321Z,101536.03
2022-08-03T15:55:27.319Z,101539.56
2022-08-03T15:59:10.431Z,101535.59
2022-08-03T16:00:41.944Z,101537.03
2022-08-03T16:03:09.062Z,101527.25
2022-08-03T16:05:35.936Z,101540.81
2022-08-03T16:08:05.058Z,101533.13
2022-08-03T16:10:33.952Z,101526.91
2022-08-03T16:13:00.781Z,101524.72
2022-08-03T16:15:28.029Z,101531.41
2022-08-03T16:17:55.248Z,101531.06
2022-08-03T16:20:34.217Z,101529.16
2022-08-03T16:23:11.215Z,101528.00
2022-08-03T16:25:43.002Z,101520.47
2022-08-03T16:28:17.121Z,101533.63
2022-08-03T16:30:45.642Z,101523.00
2022-08-03T16:33:17.218Z,101518.50
2022-08-03T16:35:45.997Z,101513.94
2022-08-03T16:38:18.337Z,101513.50
2022-08-03T16:40:47.033Z,101508.06
2022-08-03T16:43:18.222Z,101509.97
2022-08-03T16:45:45.513Z,101508.38
2022-08-03T16:48:12.270Z,101509.94
2022-08-03T16:50:39.146Z,101507.94
2022-08-03T16:53:09.220Z,101501.00
2022-08-03T16:55:51.734Z,101509.22
2022-08-03T16:58:34.481Z,101505.41
2022-08-03T17:01:21.972Z,101505.53
2022-08-03T17:04:01.475Z,101511.81
2022-08-03T17:06:35.479Z,101510.31
2022-08-03T17:09:12.017Z,101507.25
2022-08-03T17:11:47.315Z,101506.50
2022-08-03T17:14:16.763Z,101504.16
2022-08-03T17:16:52.054Z,101507.25
2022-08-03T17:19:21.495Z,101508.16
2022-08-03T17:22:10.609Z,101512.97
2022-08-03T17:24:45.139Z,101511.56
2022-08-03T17:28:42.409Z,101510.84
2022-08-03T17:30:11.997Z,101514.03
2022-08-03T17:32:57.169Z,101512.22
2022-08-03T17:35:36.465Z,101515.78
2022-08-03T17:38:08.890Z,101510.44
2022-08-03T17:40:38.071Z,101518.19
2022-08-03T17:44:12.934Z,101513.97
2022-08-03T17:45:54.732Z,101517.44
2022-08-03T17:48:25.241Z,101512.81
2022-08-03T17:50:57.714Z,101518.63
2022-08-03T17:53:29.511Z,101513.34
2022-08-03T18:00:26.388Z,101515.34
2022-08-03T18:03:18.498Z,101529.94
2022-08-03T18:06:11.370Z,101517.34
2022-08-03T18:08:38.978Z,101520.06
2022-08-03T18:11:14.604Z,101520.44
2022-08-03T18:13:58.176Z,101521.22
2022-08-03T18:16:31.177Z,101520.09
2022-08-03T18:19:00.464Z,101515.91
2022-08-03T18:22:02.230Z,101514.78
2022-08-03T18:24:25.649Z,101509.44
2022-08-03T18:26:54.695Z,101514.44
2022-08-03T18:29:26.037Z,101512.91
2022-08-03T18:32:13.370Z,101512.16
2022-08-03T18:34:54.166Z,101504.91
2022-08-03T18:37:25.151Z,101517.16
2022-08-03T18:39:57.776Z,101510.25
2022-08-03T18:42:25.739Z,101514.88
2022-08-03T18:44:56.004Z,101505.69
2022-08-03T18:47:51.821Z,101502.59
2022-08-03T18:50:49.535Z,101506.47
2022-08-03T18:54:02.588Z,101508.00
2022-08-03T18:56:21.546Z,101508.41
2022-08-03T18:59:03.664Z,101516.84
2022-08-03T19:01:58.038Z,101518.00
2022-08-03T19:04:34.175Z,101520.28
2022-08-03T19:07:06.988Z,101513.38
2022-08-03T19:09:54.664Z,101509.94
2022-08-03T19:12:42.745Z,101518.72
2022-08-03T19:15:15.716Z,101508.75
2022-08-03T19:17:50.362Z,101515.25
2022-08-03T19:20:25.854Z,101516.41
2022-08-03T19:22:54.531Z,101523.28
2022-08-03T19:25:34.769Z,101521.72
2022-08-03T19:28:05.893Z,101520.88
2022-08-03T19:30:38.800Z,101521.63
2022-08-03T19:33:16.005Z,101522.34
2022-08-03T19:35:55.051Z,101532.25
2022-08-03T19:38:28.311Z,101530.72
2022-08-03T19:41:02.378Z,101532.22
2022-08-03T19:43:52.519Z,101536.41
2022-08-03T19:46:30.645Z,101533.69
2022-08-03T19:49:15.212Z,101539.78
2022-08-03T19:52:02.538Z,101545.44
2022-08-03T19:54:45.507Z,101532.00
2022-08-03T19:57:19.583Z,101536.53
2022-08-03T19:59:50.299Z,101539.19
2022-08-03T20:02:27.268Z,101526.50
2022-08-03T20:05:14.806Z,101531.03
2022-08-03T20:07:47.453Z,101531.72
2022-08-03T20:10:15.500Z,101531.28
2022-08-03T20:12:47.212Z,101529.31
2022-08-03T20:15:14.055Z,101526.91
2022-08-03T20:17:56.355Z,101521.91
2022-08-03T20:20:37.145Z,101518.00
2022-08-03T20:23:11.538Z,101517.50
2022-08-03T20:25:48.604Z,101515.91
2022-08-03T20:28:49.816Z,101511.25
2022-08-03T20:31:18.248Z,101513.84
2022-08-03T20:33:48.869Z,101518.72
2022-08-03T20:36:18.520Z,101517.09
2022-08-03T20:38:51.925Z,101518.13
2022-08-03T20:41:20.403Z,101516.94
2022-08-03T20:43:49.377Z,101508.88
2022-08-03T20:46:31.015Z,101509.91
2022-08-03T20:49:06.548Z,101509.84
2022-08-03T20:51:49.855Z,101512.06
2022-08-03T20:54:30.520Z,101511.94
2022-08-03T20:57:09.542Z,101504.22
2022-08-03T20:59:50.109Z,101513.25
2022-08-03T21:02:29.945Z,101505.56
2022-08-03T21:05:03.492Z,101510.81
2022-08-03T21:08:03.749Z,101506.53
2022-08-03T21:10:30.027Z,101504.16
2022-08-03T21:13:16.149Z,101508.66
2022-08-03T21:16:01.108Z,101502.44
2022-08-03T21:18:49.071Z,101498.94
2022-08-03T21:21:18.357Z,101493.22
2022-08-03T21:23:49.923Z,101485.09
2022-08-03T21:26:21.823Z,101482.72
2022-08-03T21:28:50.010Z,101491.03
2022-08-03T21:31:24.723Z,101486.75
2022-08-03T21:33:56.626Z,101484.00
2022-08-03T21:36:25.895Z,101477.03
2022-08-03T21:38:56.511Z,101480.03
2022-08-03T21:41:24.442Z,101482.97
2022-08-03T21:43:51.200Z,101481.03
2022-08-03T21:46:20.034Z,101479.38
2022-08-03T21:48:52.282Z,101479.69
2022-08-03T21:51:22.277Z,101478.84
2022-08-03T21:54:02.490Z,101473.88
2022-08-03T21:56:51.671Z,101475.28
2022-08-03T21:59:20.373Z,101467.94
2022-08-03T22:01:48.829Z,101475.44
2022-08-03T22:04:50.963Z,101475.72
2022-08-03T22:07:08.623Z,101476.03
2022-08-03T22:09:36.319Z,101473.63
2022-08-03T22:12:04.155Z,101468.59
2022-08-03T22:14:33.074Z,101465.09
2022-08-03T22:17:00.930Z,101466.94
2022-08-03T22:19:38.338Z,101472.59
2022-08-03T22:22:08.576Z,101476.31
2022-08-03T22:24:38.698Z,101470.50
2022-08-03T22:27:24.231Z,101473.84
2022-08-03T22:29:53.111Z,101471.78
2022-08-03T22:32:20.471Z,101454.97
2022-08-03T22:34:48.896Z,101458.31
2022-08-03T22:37:20.590Z,101464.69
2022-08-03T22:39:49.850Z,101460.44
2022-08-03T22:42:17.330Z,101457.69
2022-08-03T22:44:45.407Z,101457.59
2022-08-03T22:47:13.961Z,101451.00
2022-08-03T22:50:31.772Z,101448.63
2022-08-03T22:52:41.814Z,101450.00
2022-08-03T22:55:12.036Z,101446.06
2022-08-03T22:57:55.797Z,101448.28
2022-08-03T23:00:24.285Z,101445.22
2022-08-03T23:02:52.099Z,101437.53
2022-08-03T23:06:01.021Z,101439.31
2022-08-03T23:08:18.269Z,101436.16
2022-08-03T23:10:47.664Z,101441.81
2022-08-03T23:13:17.430Z,101449.38
2022-08-03T23:15:55.461Z,101443.53
2022-08-03T23:18:23.659Z,101438.47
2022-08-03T23:20:52.462Z,101440.59
2022-08-03T23:23:20.756Z,101445.50
2022-08-03T23:25:50.304Z,101444.97
2022-08-03T23:28:17.417Z,101444.88
2022-08-03T23:30:45.735Z,101442.59
2022-08-03T23:33:16.570Z,101436.75
2022-08-03T23:36:29.553Z,101437.00
2022-08-03T23:38:46.927Z,101439.22
2022-08-03T23:41:15.011Z,101441.44
2022-08-03T23:43:51.915Z,101433.03
2022-08-03T23:46:22.738Z,101439.81
2022-08-03T23:48:51.049Z,101432.88
2022-08-03T23:51:30.244Z,101439.19
2022-08-03T23:54:15.030Z,101438.78
2022-08-03T23:57:28.920Z,101435.69
